createdAt,value
2023-02-22T00:00:19.746Z,37.50
2023-02-22T00:02:49.410Z,38.50
2023-02-22T00:05:20.036Z,37.60
2023-02-22T00:07:48.718Z,36.70
2023-02-22T00:10:20.337Z,36.80
2023-02-22T00:12:52.515Z,36.40
2023-02-22T00:15:21.831Z,36.70
2023-02-22T00:17:51.302Z,36.40
2023-02-22T00:20:19.928Z,35.20
2023-02-22T00:22:48.896Z,35.80
2023-02-22T00:25:19.505Z,36.70
2023-02-22T00:27:49.310Z,37.80
2023-02-22T00:30:20.893Z,37.20
2023-02-22T00:32:49.828Z,37.70
2023-02-22T00:35:20.245Z,37.70
2023-02-22T00:37:49.987Z,38.50
2023-02-22T00:40:18.978Z,39.40
2023-02-22T00:42:47.371Z,39.70
2023-02-22T00:45:17.045Z,39.50
2023-02-22T00:47:45.019Z,39.70
2023-02-22T00:50:16.449Z,39.70
2023-02-22T00:52:46.200Z,40.40
2023-02-22T00:55:17.463Z,41.00
2023-02-22T00:57:45.612Z,40.60
2023-02-22T01:00:17.364Z,39.50
2023-02-22T01:02:50.011Z,38.50
2023-02-22T01:05:18.914Z,38.50
2023-02-22T01:07:52.363Z,38.80
2023-02-22T01:10:21.269Z,38.80
2023-02-22T01:12:49.923Z,40.40
2023-02-22T01:15:21.778Z,40.00
2023-02-22T01:17:50.377Z,39.30
2023-02-22T01:20:18.940Z,39.40
2023-02-22T01:22:48.965Z,39.00
2023-02-22T01:25:19.467Z,39.30
2023-02-22T01:27:48.102Z,39.40
2023-02-22T01:30:16.454Z,40.40
2023-02-22T01:32:44.668Z,40.20
2023-02-22T01:35:15.627Z,41.10
2023-02-22T01:37:43.586Z,41.30
2023-02-22T01:40:17.222Z,41.10
2023-02-22T01:42:48.128Z,41.20
2023-02-22T01:45:47.101Z,40.10
2023-02-22T01:48:18.003Z,39.80
2023-02-22T01:50:48.664Z,37.70
2023-02-22T01:53:18.061Z,38.50
2023-02-22T01:55:47.071Z,38.80
2023-02-22T01:58:17.715Z,38.60
2023-02-22T02:00:45.739Z,38.30
2023-02-22T02:03:16.528Z,37.60
2023-02-22T02:05:45.357Z,37.00
2023-02-22T02:08:18.095Z,36.90
2023-02-22T02:10:46.149Z,36.90
2023-02-22T02:13:16.074Z,36.80
2023-02-22T02:15:45.947Z,36.40
2023-02-22T02:18:14.468Z,36.40
2023-02-22T02:20:46.173Z,35.90
2023-02-22T02:23:26.185Z,35.50
2023-02-22T02:26:03.915Z,35.60
2023-02-22T02:28:54.886Z,35.60
2023-02-22T02:31:35.098Z,37.30
2023-02-22T02:34:06.977Z,37.30
2023-02-22T02:36:40.997Z,38.70
2023-02-22T02:39:11.551Z,40.00
2023-02-22T02:41:41.604Z,39.90
2023-02-22T02:44:12.732Z,39.80
2023-02-22T02:46:46.342Z,39.10
2023-02-22T02:49:16.935Z,40.40
2023-02-22T02:51:49.079Z,40.80
2023-02-22T02:54:17.162Z,39.90
2023-02-22T02:56:46.158Z,40.50
2023-02-22T02:59:25.328Z,40.00
2023-02-22T03:01:58.893Z,40.80
2023-02-22T03:04:36.650Z,41.70
2023-02-22T03:07:26.705Z,41.50
2023-02-22T03:09:58.497Z,40.70
2023-02-22T03:12:33.220Z,41.30
2023-02-22T03:15:07.180Z,41.70
2023-02-22T03:17:42.419Z,41.60
2023-02-22T03:20:17.493Z,41.20
2023-02-22T03:22:50.010Z,40.70
2023-02-22T03:25:25.740Z,40.40
2023-02-22T03:28:02.358Z,40.00
2023-02-22T03:30:34.796Z,39.50
2023-02-22T03:33:08.949Z,39.60
2023-02-22T03:35:41.306Z,39.10
2023-02-22T03:38:12.530Z,39.60
2023-02-22T03:40:43.443Z,39.90
2023-02-22T03:43:15.486Z,39.70
2023-02-22T03:45:46.464Z,39.40
2023-02-22T03:48:24.010Z,39.50
2023-02-22T03:50:54.237Z,40.40
2023-02-22T03:53:23.440Z,41.10
2023-02-22T03:55:53.534Z,42.50
2023-02-22T03:58:23.233Z,42.30
2023-02-22T04:00:53.175Z,42.40
2023-02-22T04:03:23.781Z,42.40
2023-02-22T04:05:54.729Z,42.40
2023-02-22T04:08:23.935Z,42.80
2023-02-22T04:10:52.325Z,42.40
2023-02-22T04:13:24.518Z,42.40
2023-02-22T04:15:55.138Z,42.90
2023-02-22T04:18:23.694Z,42.20
2023-02-22T04:20:53.239Z,42.50
2023-02-22T04:23:34.127Z,42.40
2023-02-22T04:26:03.491Z,42.70
2023-02-22T04:28:32.088Z,43.00
2023-02-22T04:31:10.236Z,42.80
2023-02-22T04:33:38.815Z,42.30
2023-02-22T04:36:07.661Z,42.40
2023-02-22T04:38:38.095Z,42.10
2023-02-22T04:41:06.262Z,41.70
2023-02-22T04:43:34.491Z,41.50
2023-02-22T04:46:18.180Z,41.50
2023-02-22T04:48:46.313Z,41.50
2023-02-22T04:51:16.117Z,42.30
2023-02-22T04:53:57.862Z,41.70
2023-02-22T04:56:26.648Z,42.40
2023-02-22T04:58:54.664Z,42.40
2023-02-22T05:01:23.527Z,42.00
2023-02-22T05:03:51.468Z,41.40
2023-02-22T05:06:19.549Z,41.30
2023-02-22T05:08:48.051Z,41.10
2023-02-22T05:11:17.570Z,40.90
2023-02-22T05:13:46.691Z,41.10
2023-02-22T05:16:14.883Z,41.00
2023-02-22T05:18:42.856Z,41.20
2023-02-22T05:21:11.159Z,42.20
2023-02-22T05:23:39.168Z,41.10
2023-02-22T05:26:10.027Z,41.50
2023-02-22T05:28:40.774Z,42.10
2023-02-22T05:31:09.278Z,42.10
2023-02-22T05:33:37.337Z,42.20
2023-02-22T05:36:05.438Z,42.20
2023-02-22T05:38:33.540Z,42.30
2023-02-22T05:41:01.541Z,41.80
2023-02-22T05:43:29.532Z,41.60
2023-02-22T05:45:58.891Z,40.70
2023-02-22T05:48:26.816Z,40.90
2023-02-22T05:50:56.438Z,40.90
2023-02-22T05:53:24.636Z,41.90
2023-02-22T05:55:53.008Z,41.80
2023-02-22T05:58:20.949Z,41.80
2023-02-22T06:00:49.046Z,43.10
2023-02-22T06:03:19.770Z,43.00
2023-02-22T06:05:47.946Z,42.80
2023-02-22T06:08:17.694Z,43.70
2023-02-22T06:10:46.035Z,44.80
2023-02-22T06:13:14.041Z,44.40
2023-02-22T06:15:42.018Z,44.60
2023-02-22T06:18:10.183Z,45.00
2023-02-22T06:20:39.604Z,45.70
2023-02-22T06:23:07.552Z,46.00
2023-02-22T06:25:38.220Z,46.10
2023-02-22T06:28:07.083Z,46.80
2023-02-22T06:30:35.398Z,46.70
2023-02-22T06:33:03.370Z,46.40
2023-02-22T06:35:31.439Z,46.20
2023-02-22T06:38:00.860Z,46.40
2023-02-22T06:40:29.780Z,46.90
2023-02-22T06:42:59.865Z,47.00
2023-02-22T06:45:28.100Z,46.90
2023-02-22T06:47:56.967Z,46.70
2023-02-22T06:50:26.399Z,46.60
2023-02-22T06:52:54.711Z,46.00
2023-02-22T06:55:25.614Z,45.30
2023-02-22T06:57:53.887Z,45.40
2023-02-22T07:00:24.522Z,45.10
2023-02-22T07:02:52.896Z,45.30
2023-02-22T07:05:21.725Z,45.90
2023-02-22T07:07:50.372Z,47.80
2023-02-22T07:10:20.623Z,47.70
2023-02-22T07:12:50.822Z,48.80
2023-02-22T07:15:19.515Z,49.90
2023-02-22T07:17:47.466Z,52.70
2023-02-22T07:20:15.543Z,52.90
2023-02-22T07:22:43.492Z,54.20
2023-02-22T07:25:12.327Z,55.10
2023-02-22T07:27:41.514Z,55.30
2023-02-22T07:30:16.759Z,55.50
2023-02-22T07:32:45.057Z,55.80
2023-02-22T07:35:15.692Z,56.30
2023-02-22T07:37:43.793Z,56.50
2023-02-22T07:40:11.882Z,56.40
2023-02-22T07:42:56.550Z,55.30
2023-02-22T07:45:27.462Z,54.90
2023-02-22T07:47:55.756Z,53.70
2023-02-22T07:50:25.113Z,53.10
2023-02-22T07:52:54.602Z,52.70
2023-02-22T07:55:23.676Z,53.00
2023-02-22T07:57:52.538Z,52.30
2023-02-22T08:00:24.434Z,52.80
2023-02-22T08:02:54.413Z,53.10
2023-02-22T08:05:23.635Z,53.10
2023-02-22T08:07:51.881Z,53.40
2023-02-22T08:10:21.074Z,53.50
2023-02-22T08:12:49.428Z,53.90
2023-02-22T08:15:18.465Z,53.60
2023-02-22T08:17:46.394Z,52.80
2023-02-22T08:20:15.779Z,53.00
2023-02-22T08:22:44.334Z,52.70
2023-02-22T08:25:12.948Z,50.80
2023-02-22T08:27:40.935Z,50.30
2023-02-22T08:30:09.673Z,49.50
2023-02-22T08:32:37.835Z,48.20
2023-02-22T08:35:06.570Z,47.50
2023-02-22T08:37:35.851Z,47.30
2023-02-22T08:40:04.462Z,47.00
2023-02-22T08:42:32.534Z,46.60
2023-02-22T08:45:00.541Z,46.20
2023-02-22T08:47:28.566Z,46.10
2023-02-22T08:49:56.866Z,45.90
2023-02-22T08:52:25.728Z,46.10
2023-02-22T08:54:55.642Z,45.10
2023-02-22T08:57:23.626Z,45.20
2023-02-22T08:59:53.348Z,44.70
2023-02-22T09:02:22.199Z,43.80
2023-02-22T09:04:50.642Z,43.30
2023-02-22T09:07:18.781Z,43.90
2023-02-22T09:09:47.192Z,43.10
2023-02-22T09:12:18.481Z,41.60
2023-02-22T09:14:46.789Z,41.50
2023-02-22T09:17:14.770Z,40.60
2023-02-22T09:19:42.802Z,40.70
2023-02-22T09:22:10.886Z,40.80
2023-02-22T09:24:39.940Z,39.60
2023-02-22T09:27:10.427Z,39.00
2023-02-22T09:29:40.669Z,39.00
2023-02-22T09:32:09.044Z,38.90
2023-02-22T09:34:37.554Z,39.10
2023-02-22T09:37:08.781Z,39.00
2023-02-22T09:39:37.543Z,39.20
2023-02-22T09:42:09.420Z,39.20
2023-02-22T09:44:40.206Z,39.20
2023-02-22T09:47:15.171Z,39.40
2023-02-22T09:49:47.333Z,39.20
2023-02-22T09:52:18.712Z,38.40
2023-02-22T09:54:51.856Z,38.50
2023-02-22T09:57:22.524Z,37.70
2023-02-22T09:59:58.749Z,37.50
2023-02-22T10:02:30.970Z,37.10
2023-02-22T10:05:05.743Z,36.80
2023-02-22T10:07:37.093Z,36.20
2023-02-22T10:10:06.520Z,36.70
2023-02-22T10:12:39.261Z,35.90
2023-02-22T10:15:25.172Z,36.50
2023-02-22T10:17:58.785Z,36.80
2023-02-22T10:20:37.145Z,36.00
2023-02-22T10:23:10.084Z,37.10
2023-02-22T10:25:38.817Z,35.30
2023-02-22T10:28:10.803Z,36.10
2023-02-22T10:30:42.511Z,35.20
2023-02-22T10:33:15.492Z,34.60
2023-02-22T10:35:46.970Z,35.30
2023-02-22T10:38:17.686Z,34.70
2023-02-22T10:40:49.083Z,34.40
2023-02-22T10:43:19.950Z,33.40
2023-02-22T10:45:48.198Z,32.90
2023-02-22T10:48:19.295Z,33.30
2023-02-22T10:50:47.924Z,31.70
2023-02-22T10:53:16.333Z,32.60
2023-02-22T10:56:03.452Z,33.70
2023-02-22T10:58:40.415Z,34.40
2023-02-22T11:01:19.146Z,33.10
2023-02-22T11:03:56.892Z,33.40
2023-02-22T11:06:25.348Z,33.40
2023-02-22T11:09:04.700Z,31.50
2023-02-22T11:11:34.442Z,32.70
2023-02-22T11:14:02.514Z,31.40
2023-02-22T11:16:33.451Z,32.60
2023-02-22T11:19:04.515Z,30.00
2023-02-22T11:21:33.261Z,30.40
2023-02-22T11:24:06.056Z,31.50
2023-02-22T11:26:38.900Z,32.00
2023-02-22T11:29:11.660Z,32.30
2023-02-22T11:31:43.583Z,31.50
2023-02-22T11:34:26.674Z,31.10
2023-02-22T11:36:56.613Z,31.00
2023-02-22T11:39:25.694Z,31.10
2023-02-22T11:41:56.046Z,30.40
2023-02-22T11:44:25.340Z,29.20
2023-02-22T11:46:55.686Z,29.40
2023-02-22T11:49:25.707Z,28.80
2023-02-22T11:52:01.382Z,27.90
2023-02-22T11:54:35.137Z,27.80
2023-02-22T11:57:12.283Z,26.30
2023-02-22T11:59:46.380Z,27.00
2023-02-22T12:02:23.863Z,27.80
2023-02-22T12:05:03.324Z,27.60
2023-02-22T12:07:36.802Z,27.50
2023-02-22T12:10:10.361Z,26.90
2023-02-22T12:12:43.222Z,26.50
2023-02-22T12:15:15.798Z,27.00
2023-02-22T12:17:59.290Z,25.90
2023-02-22T12:20:30.981Z,26.70
2023-02-22T12:23:04.124Z,27.20
2023-02-22T12:25:34.520Z,26.00
2023-02-22T12:28:15.627Z,26.10
2023-02-22T12:30:54.132Z,26.20
2023-02-22T12:33:24.885Z,24.70
2023-02-22T12:35:54.908Z,24.90
2023-02-22T12:38:27.191Z,24.60
2023-02-22T12:41:00.076Z,23.80
2023-02-22T12:43:29.981Z,24.90
2023-02-22T12:46:01.420Z,24.30
2023-02-22T12:48:35.801Z,24.10
2023-02-22T12:51:09.839Z,24.10
2023-02-22T12:53:41.606Z,23.90
2023-02-22T12:56:17.158Z,24.20
2023-02-22T12:58:49.897Z,23.70
2023-02-22T13:01:20.363Z,24.80
2023-02-22T13:03:49.292Z,22.50
2023-02-22T13:06:26.004Z,22.80
2023-02-22T13:09:01.635Z,23.70
2023-02-22T13:11:34.725Z,23.60
2023-02-22T13:14:09.674Z,22.70
2023-02-22T13:16:41.956Z,23.00
2023-02-22T13:19:16.583Z,24.30
2023-02-22T13:21:47.698Z,24.20
2023-02-22T13:24:20.827Z,23.60
2023-02-22T13:26:51.585Z,23.40
2023-02-22T13:29:21.626Z,22.90
2023-02-22T13:31:54.795Z,23.70
2023-02-22T13:34:31.077Z,22.70
2023-02-22T13:37:06.432Z,23.60
2023-02-22T13:39:54.625Z,23.00
2023-02-22T13:42:34.817Z,23.60
2023-02-22T13:45:33.051Z,23.20
2023-02-22T13:48:09.334Z,22.70
2023-02-22T13:50:56.038Z,22.70
2023-02-22T13:53:26.288Z,23.80
2023-02-22T13:55:57.079Z,24.00
2023-02-22T13:58:26.892Z,24.40
2023-02-22T14:00:56.759Z,24.50
2023-02-22T14:03:40.996Z,24.70
2023-02-22T14:06:10.772Z,24.90
2023-02-22T14:08:44.085Z,25.40
2023-02-22T14:11:30.873Z,24.90
2023-02-22T14:14:14.633Z,25.60
2023-02-22T14:16:43.015Z,26.10
2023-02-22T14:19:15.764Z,26.00
2023-02-22T14:21:57.448Z,27.20
2023-02-22T14:24:26.134Z,26.80
2023-02-22T14:26:59.198Z,26.00
2023-02-22T14:29:29.117Z,26.00
2023-02-22T14:32:02.423Z,26.70
2023-02-22T14:34:49.490Z,26.20
2023-02-22T14:37:19.128Z,26.20
2023-02-22T14:39:51.029Z,26.00
2023-02-22T14:42:22.912Z,26.20
2023-02-22T14:44:55.637Z,26.40
2023-02-22T14:47:28.699Z,26.40
2023-02-22T14:50:01.405Z,26.40
2023-02-22T14:52:31.505Z,27.10
2023-02-22T14:55:14.481Z,28.20
2023-02-22T14:57:56.853Z,28.70
2023-02-22T15:00:31.653Z,29.00
2023-02-22T15:03:01.586Z,29.20
2023-02-22T15:05:38.261Z,29.70
2023-02-22T15:08:07.317Z,30.00
2023-02-22T15:10:42.889Z,29.80
2023-02-22T15:13:19.268Z,29.80
2023-02-22T15:15:49.971Z,30.70
2023-02-22T15:18:27.368Z,30.60
2023-02-22T15:20:58.096Z,30.70
2023-02-22T15:23:29.688Z,30.80
2023-02-22T15:25:57.817Z,29.80
2023-02-22T15:28:27.915Z,29.90
2023-02-22T15:31:10.770Z,29.30
2023-02-22T15:33:40.245Z,30.00
2023-02-22T15:36:14.371Z,30.80
2023-02-22T15:38:43.175Z,30.60
2023-02-22T15:41:21.256Z,30.60
2023-02-22T15:44:00.571Z,30.90
2023-02-22T15:46:30.173Z,30.50
2023-02-22T15:49:20.423Z,30.50
2023-02-22T15:51:51.769Z,30.50
2023-02-22T15:54:27.343Z,30.60
2023-02-22T15:56:56.734Z,30.40
2023-02-22T15:59:30.437Z,30.40
2023-02-22T16:01:59.386Z,30.10
2023-02-22T16:04:30.426Z,30.30
2023-02-22T16:07:06.560Z,30.30
2023-02-22T16:09:35.090Z,30.40
2023-02-22T16:12:10.516Z,30.50
2023-02-22T16:14:44.934Z,30.60
2023-02-22T16:17:14.429Z,29.90
2023-02-22T16:19:45.068Z,30.70
2023-02-22T16:22:26.777Z,30.30
2023-02-22T16:25:16.305Z,30.00
2023-02-22T16:27:48.345Z,30.20
2023-02-22T16:30:29.039Z,29.40
2023-02-22T16:32:57.981Z,29.70
2023-02-22T16:35:29.654Z,29.30
2023-02-22T16:38:00.342Z,29.40
2023-02-22T16:40:32.236Z,29.90
2023-02-22T16:43:01.902Z,30.30
2023-02-22T16:45:30.155Z,30.40
2023-02-22T16:47:59.688Z,30.40
2023-02-22T16:50:28.997Z,30.50
2023-02-22T16:52:58.576Z,30.50
2023-02-22T16:55:27.292Z,30.40
2023-02-22T16:58:01.036Z,30.80
2023-02-22T17:00:32.246Z,31.50
2023-02-22T17:03:03.867Z,31.40
2023-02-22T17:05:36.087Z,31.60
2023-02-22T17:08:04.760Z,32.00
2023-02-22T17:10:32.983Z,32.70
2023-02-22T17:13:12.719Z,33.40
2023-02-22T17:15:48.417Z,34.30
2023-02-22T17:18:19.228Z,33.60
2023-02-22T17:20:48.697Z,33.70
2023-02-22T17:23:16.700Z,34.30
2023-02-22T17:25:46.028Z,34.50
2023-02-22T17:28:13.988Z,34.70
2023-02-22T17:30:44.105Z,35.70
2023-02-22T17:33:16.489Z,35.90
2023-02-22T17:35:45.473Z,35.80
2023-02-22T17:38:18.468Z,35.80
2023-02-22T17:40:48.507Z,35.90
2023-02-22T17:43:16.698Z,36.00
2023-02-22T17:45:46.100Z,36.00
2023-02-22T17:48:14.828Z,36.00
2023-02-22T17:50:43.574Z,37.70
2023-02-22T17:53:11.905Z,38.50
2023-02-22T17:55:42.304Z,38.80
2023-02-22T17:58:14.623Z,39.10
2023-02-22T18:00:44.147Z,39.10
2023-02-22T18:03:16.079Z,39.30
2023-02-22T18:05:46.209Z,39.50
2023-02-22T18:08:14.812Z,39.60
2023-02-22T18:10:45.643Z,39.60
2023-02-22T18:13:16.720Z,40.00
2023-02-22T18:15:45.381Z,39.60
2023-02-22T18:18:15.029Z,40.00
2023-02-22T18:20:44.361Z,39.30
2023-02-22T18:23:13.796Z,39.00
2023-02-22T18:25:57.197Z,38.80
2023-02-22T18:28:34.616Z,38.20
2023-02-22T18:31:06.932Z,37.90
2023-02-22T18:33:35.485Z,37.70
2023-02-22T18:36:03.633Z,37.50
2023-02-22T18:38:31.612Z,37.40
2023-02-22T18:41:00.201Z,38.00
2023-02-22T18:43:28.783Z,38.40
2023-02-22T18:46:05.309Z,38.80
2023-02-22T18:48:33.962Z,38.70
2023-02-22T18:51:02.271Z,38.30
2023-02-22T18:53:30.830Z,37.80
2023-02-22T18:56:03.643Z,37.90
2023-02-22T18:58:32.853Z,37.90
2023-02-22T19:01:02.460Z,38.00
2023-02-22T19:03:32.378Z,38.20
2023-02-22T19:06:04.889Z,38.70
2023-02-22T19:08:33.497Z,38.70
2023-02-22T19:11:03.573Z,38.80
2023-02-22T19:13:31.884Z,39.10
2023-02-22T19:16:01.974Z,38.90
2023-02-22T19:18:33.609Z,39.40
2023-02-22T19:21:02.522Z,38.80
2023-02-22T19:23:34.371Z,38.60
2023-02-22T19:26:03.620Z,38.70
2023-02-22T19:28:34.919Z,38.20
2023-02-22T19:31:14.008Z,37.90
2023-02-22T19:33:46.296Z,38.40
2023-02-22T19:36:15.290Z,37.90
2023-02-22T19:38:43.944Z,38.10
2023-02-22T19:41:15.922Z,37.50
2023-02-22T19:43:44.588Z,37.30
2023-02-22T19:46:17.793Z,37.20
2023-02-22T19:48:47.398Z,37.60
2023-02-22T19:51:17.773Z,38.80
2023-02-22T19:53:48.283Z,37.80
2023-02-22T19:56:17.680Z,37.70
2023-02-22T19:58:50.833Z,38.00
2023-02-22T20:01:23.130Z,38.40
2023-02-22T20:03:59.809Z,37.50
2023-02-22T20:06:28.746Z,37.20
2023-02-22T20:08:57.534Z,37.30
2023-02-22T20:11:25.873Z,36.70
2023-02-22T20:13:55.473Z,37.10
2023-02-22T20:16:24.286Z,37.70
2023-02-22T20:18:52.366Z,38.00
2023-02-22T20:21:23.222Z,38.00
2023-02-22T20:23:51.526Z,37.90
2023-02-22T20:26:20.857Z,37.90
2023-02-22T20:28:50.004Z,38.10
2023-02-22T20:31:18.885Z,38.40
2023-02-22T20:33:48.541Z,39.00
2023-02-22T20:36:17.969Z,39.10
2023-02-22T20:38:47.977Z,39.30
2023-02-22T20:41:25.971Z,39.60
2023-02-22T20:43:55.114Z,40.40
2023-02-22T20:46:24.961Z,40.80
2023-02-22T20:48:55.023Z,41.50
2023-02-22T20:51:25.740Z,41.50
2023-02-22T20:53:55.289Z,41.70
2023-02-22T20:56:24.815Z,41.70
2023-02-22T20:58:53.309Z,42.00
2023-02-22T21:01:22.474Z,41.90
2023-02-22T21:03:51.339Z,41.70
2023-02-22T21:06:22.310Z,41.70
2023-02-22T21:08:51.486Z,41.80
2023-02-22T21:11:21.396Z,42.80
2023-02-22T21:13:49.820Z,42.90
2023-02-22T21:16:19.037Z,43.40
2023-02-22T21:18:47.294Z,43.50
2023-02-22T21:21:16.287Z,43.40
2023-02-22T21:23:44.555Z,43.10
2023-02-22T21:26:15.549Z,42.80
2023-02-22T21:28:51.144Z,42.30
2023-02-22T21:31:20.653Z,41.90
2023-02-22T21:33:49.934Z,41.90
2023-02-22T21:36:18.302Z,42.30
2023-02-22T21:38:48.438Z,42.60
2023-02-22T21:41:17.704Z,42.40
2023-02-22T21:43:49.794Z,42.20
2023-02-22T21:46:18.742Z,42.50
2023-02-22T21:48:48.926Z,42.70
2023-02-22T21:51:18.427Z,42.90
2023-02-22T21:53:46.923Z,43.80
2023-02-22T21:56:15.490Z,44.50
2023-02-22T21:58:44.255Z,44.70
2023-02-22T22:01:17.385Z,45.80
2023-02-22T22:03:45.784Z,45.70
2023-02-22T22:06:15.273Z,46.20
2023-02-22T22:08:46.048Z,46.20
2023-02-22T22:11:15.093Z,46.40
2023-02-22T22:13:43.267Z,46.60
2023-02-22T22:16:12.532Z,46.70
2023-02-22T22:18:42.550Z,46.80
2023-02-22T22:21:11.762Z,46.70
2023-02-22T22:23:40.327Z,46.70
2023-02-22T22:26:11.560Z,47.30
2023-02-22T22:28:40.886Z,47.80
2023-02-22T22:31:09.561Z,47.90
2023-02-22T22:33:37.970Z,47.80
2023-02-22T22:36:09.228Z,47.80
2023-02-22T22:38:38.804Z,48.20
2023-02-22T22:41:07.732Z,49.00
2023-02-22T22:43:36.405Z,49.20
2023-02-22T22:46:05.304Z,49.30
2023-02-22T22:48:36.091Z,50.10
2023-02-22T22:51:06.488Z,50.80
2023-02-22T22:53:36.542Z,51.40
2023-02-22T22:56:05.771Z,51.60
2023-02-22T22:58:34.068Z,51.90
2023-02-22T23:01:07.072Z,52.40
2023-02-22T23:03:37.020Z,52.20
2023-02-22T23:06:05.590Z,52.20
2023-02-22T23:08:43.280Z,51.80
2023-02-22T23:11:13.204Z,52.00
2023-02-22T23:13:41.242Z,51.60
2023-02-22T23:16:11.933Z,51.50
2023-02-22T23:18:43.212Z,51.40
2023-02-22T23:21:11.220Z,51.30
2023-02-22T23:23:39.334Z,50.40
2023-02-22T23:26:14.814Z,50.30
2023-02-22T23:28:44.582Z,49.90
2023-02-22T23:31:14.448Z,49.90
2023-02-22T23:33:42.470Z,50.10
2023-02-22T23:36:12.402Z,50.30
2023-02-22T23:38:41.828Z,50.30
2023-02-22T23:41:10.797Z,50.00
2023-02-22T23:43:40.467Z,50.00
2023-02-22T23:46:13.060Z,49.30
2023-02-22T23:48:46.564Z,50.10
2023-02-22T23:51:15.643Z,49.80
2023-02-22T23:53:45.973Z,50.40
2023-02-22T23:56:14.750Z,51.00
2023-02-22T23:58:46.902Z,51.20
